Terminal Aerodrome Forecast
Issued by NWS Shreveport, LA

Home | Current Version | Previous Version | Text Only | Print | Product List | Glossary On
Versions: 1 2 3 4 5 6 7 8 9 10 11 12 13 14 15 16 17 18 19 20 21 22
000
FTUS44 KSHV 240500 RRA
TAFTXK
TAF
KTXK 240547Z 2406/2506 27012G20KT P6SM BKN025 BKN350
     FM241100 28013KT P6SM SCT030
     FM241400 28010KT P6SM FEW120
     FM242300 26006KT P6SM SKC
     FM250100 26005KT P6SM FEW180=

USA.gov is the U.S. government's official web portal to all federal, state and local government web resources and services.